sensor_id;sensor_type;location;lat;lon;timestamp;P1;durP1;ratioP1;P2;durP2;ratioP2
6549;SDS011;15142;48.888;9.134;2022-12-07T00:01:32;46.40;;;19.60;;
6549;SDS011;15142;48.888;9.134;2022-12-07T00:04:02;40.83;;;16.43;;
6549;SDS011;15142;48.888;9.134;2022-12-07T00:06:31;31.23;;;13.77;;
6549;SDS011;15142;48.888;9.134;2022-12-07T00:08:58;28.60;;;12.93;;
6549;SDS011;15142;48.888;9.134;2022-12-07T00:11:26;20.10;;;10.70;;
6549;SDS011;15142;48.888;9.134;2022-12-07T00:13:53;27.00;;;12.93;;
6549;SDS011;15142;48.888;9.134;2022-12-07T00:16:22;110.70;;;33.23;;
6549;SDS011;15142;48.888;9.134;2022-12-07T00:18:50;27.63;;;13.63;;
6549;SDS011;15142;48.888;9.134;2022-12-07T00:21:18;120.73;;;37.67;;
6549;SDS011;15142;48.888;9.134;2022-12-07T00:23:46;83.50;;;26.70;;
6549;SDS011;15142;48.888;9.134;2022-12-07T00:26:14;42.70;;;19.23;;
6549;SDS011;15142;48.888;9.134;2022-12-07T00:28:44;79.60;;;30.80;;
6549;SDS011;15142;48.888;9.134;2022-12-07T00:31:12;50.90;;;20.80;;
6549;SDS011;15142;48.888;9.134;2022-12-07T00:33:40;79.87;;;30.83;;
6549;SDS011;15142;48.888;9.134;2022-12-07T00:36:07;24.20;;;12.50;;
6549;SDS011;15142;48.888;9.134;2022-12-07T00:38:37;65.97;;;25.83;;
6549;SDS011;15142;48.888;9.134;2022-12-07T00:41:05;130.10;;;37.33;;
6549;SDS011;15142;48.888;9.134;2022-12-07T00:43:32;78.17;;;29.60;;
6549;SDS011;15142;48.888;9.134;2022-12-07T00:45:59;76.67;;;30.90;;
6549;SDS011;15142;48.888;9.134;2022-12-07T00:48:26;78.80;;;33.67;;
6549;SDS011;15142;48.888;9.134;2022-12-07T00:50:52;44.77;;;20.43;;
6549;SDS011;15142;48.888;9.134;2022-12-07T00:53:19;37.73;;;17.77;;
6549;SDS011;15142;48.888;9.134;2022-12-07T00:55:47;42.50;;;18.50;;
6549;SDS011;15142;48.888;9.134;2022-12-07T00:58:14;25.13;;;14.30;;
6549;SDS011;15142;48.888;9.134;2022-12-07T01:00:41;20.73;;;12.07;;
6549;SDS011;15142;48.888;9.134;2022-12-07T01:03:09;19.80;;;11.97;;
6549;SDS011;15142;48.888;9.134;2022-12-07T01:05:37;23.43;;;13.93;;
6549;SDS011;15142;48.888;9.134;2022-12-07T01:08:05;20.00;;;12.00;;
6549;SDS011;15142;48.888;9.134;2022-12-07T01:10:32;15.60;;;9.50;;
6549;SDS011;15142;48.888;9.134;2022-12-07T01:13:00;16.20;;;9.53;;
6549;SDS011;15142;48.888;9.134;2022-12-07T01:15:26;14.30;;;9.60;;
6549;SDS011;15142;48.888;9.134;2022-12-07T01:17:53;16.20;;;10.07;;
6549;SDS011;15142;48.888;9.134;2022-12-07T01:20:20;17.97;;;10.47;;
6549;SDS011;15142;48.888;9.134;2022-12-07T01:22:47;13.40;;;8.83;;
6549;SDS011;15142;48.888;9.134;2022-12-07T01:25:14;17.63;;;9.93;;
6549;SDS011;15142;48.888;9.134;2022-12-07T01:27:41;11.13;;;7.97;;
6549;SDS011;15142;48.888;9.134;2022-12-07T01:30:09;14.57;;;8.03;;
6549;SDS011;15142;48.888;9.134;2022-12-07T01:32:37;14.67;;;7.50;;
6549;SDS011;15142;48.888;9.134;2022-12-07T01:35:04;11.27;;;8.80;;
6549;SDS011;15142;48.888;9.134;2022-12-07T01:37:33;12.63;;;8.60;;
6549;SDS011;15142;48.888;9.134;2022-12-07T01:40:00;21.50;;;9.80;;
6549;SDS011;15142;48.888;9.134;2022-12-07T01:42:28;12.00;;;8.10;;
6549;SDS011;15142;48.888;9.134;2022-12-07T01:48:12;11.50;;;8.23;;
6549;SDS011;15142;48.888;9.134;2022-12-07T01:50:42;15.60;;;10.03;;
6549;SDS011;15142;48.888;9.134;2022-12-07T01:53:10;15.40;;;9.37;;
6549;SDS011;15142;48.888;9.134;2022-12-07T01:55:38;16.43;;;8.70;;
6549;SDS011;15142;48.888;9.134;2022-12-07T01:58:08;15.87;;;8.87;;
6549;SDS011;15142;48.888;9.134;2022-12-07T02:00:36;15.60;;;10.13;;
6549;SDS011;15142;48.888;9.134;2022-12-07T02:03:04;13.93;;;8.73;;
6549;SDS011;15142;48.888;9.134;2022-12-07T02:05:34;17.23;;;8.50;;
6549;SDS011;15142;48.888;9.134;2022-12-07T02:08:03;16.50;;;9.30;;
6549;SDS011;15142;48.888;9.134;2022-12-07T02:10:30;17.47;;;10.33;;
6549;SDS011;15142;48.888;9.134;2022-12-07T02:12:57;14.60;;;9.50;;
6549;SDS011;15142;48.888;9.134;2022-12-07T02:15:29;12.63;;;7.67;;
6549;SDS011;15142;48.888;9.134;2022-12-07T02:18:07;12.67;;;9.10;;
6549;SDS011;15142;48.888;9.134;2022-12-07T02:20:39;15.27;;;8.57;;
6549;SDS011;15142;48.888;9.134;2022-12-07T02:23:23;12.03;;;9.70;;
6549;SDS011;15142;48.888;9.134;2022-12-07T02:26:14;11.57;;;8.23;;
6549;SDS011;15142;48.888;9.134;2022-12-07T02:29:03;16.07;;;10.77;;
6549;SDS011;15142;48.888;9.134;2022-12-07T02:31:42;21.33;;;8.63;;
6549;SDS011;15142;48.888;9.134;2022-12-07T02:34:15;13.90;;;8.63;;
6549;SDS011;15142;48.888;9.134;2022-12-07T02:36:50;12.17;;;7.40;;
6549;SDS011;15142;48.888;9.134;2022-12-07T02:39:20;13.70;;;8.83;;
6549;SDS011;15142;48.888;9.134;2022-12-07T02:41:55;14.63;;;9.67;;
6549;SDS011;15142;48.888;9.134;2022-12-07T02:44:29;16.93;;;9.27;;
6549;SDS011;15142;48.888;9.134;2022-12-07T02:46:58;15.60;;;9.53;;
6549;SDS011;15142;48.888;9.134;2022-12-07T02:49:28;12.83;;;8.40;;
6549;SDS011;15142;48.888;9.134;2022-12-07T02:51:56;11.20;;;7.73;;
6549;SDS011;15142;48.888;9.134;2022-12-07T02:54:22;15.30;;;8.80;;
6549;SDS011;15142;48.888;9.134;2022-12-07T02:56:50;13.60;;;8.63;;
6549;SDS011;15142;48.888;9.134;2022-12-07T02:59:24;15.33;;;10.60;;
6549;SDS011;15142;48.888;9.134;2022-12-07T03:02:02;15.53;;;8.47;;
6549;SDS011;15142;48.888;9.134;2022-12-07T03:04:38;13.90;;;9.33;;
6549;SDS011;15142;48.888;9.134;2022-12-07T03:07:14;15.23;;;9.40;;
6549;SDS011;15142;48.888;9.134;2022-12-07T03:09:50;15.60;;;9.00;;
6549;SDS011;15142;48.888;9.134;2022-12-07T03:12:24;16.77;;;9.77;;
6549;SDS011;15142;48.888;9.134;2022-12-07T03:14:56;19.70;;;10.17;;
6549;SDS011;15142;48.888;9.134;2022-12-07T03:17:33;12.17;;;8.80;;
6549;SDS011;15142;48.888;9.134;2022-12-07T03:20:05;16.77;;;9.33;;
6549;SDS011;15142;48.888;9.134;2022-12-07T03:22:35;16.70;;;9.00;;
6549;SDS011;15142;48.888;9.134;2022-12-07T03:25:06;15.30;;;9.60;;
6549;SDS011;15142;48.888;9.134;2022-12-07T03:27:36;16.13;;;8.77;;
6549;SDS011;15142;48.888;9.134;2022-12-07T03:30:07;15.37;;;9.70;;
6549;SDS011;15142;48.888;9.134;2022-12-07T03:32:39;15.60;;;8.67;;
6549;SDS011;15142;48.888;9.134;2022-12-07T03:35:10;16.20;;;9.50;;
6549;SDS011;15142;48.888;9.134;2022-12-07T03:37:43;12.07;;;8.23;;
6549;SDS011;15142;48.888;9.134;2022-12-07T03:40:15;14.17;;;8.70;;
6549;SDS011;15142;48.888;9.134;2022-12-07T03:42:48;14.70;;;9.90;;
6549;SDS011;15142;48.888;9.134;2022-12-07T03:45:15;17.50;;;9.70;;
6549;SDS011;15142;48.888;9.134;2022-12-07T03:47:45;14.20;;;9.73;;
6549;SDS011;15142;48.888;9.134;2022-12-07T03:50:15;14.43;;;9.30;;
6549;SDS011;15142;48.888;9.134;2022-12-07T03:52:52;17.73;;;10.47;;
6549;SDS011;15142;48.888;9.134;2022-12-07T03:55:22;16.23;;;10.10;;
6549;SDS011;15142;48.888;9.134;2022-12-07T03:57:53;18.37;;;10.30;;
6549;SDS011;15142;48.888;9.134;2022-12-07T04:00:24;19.70;;;10.03;;
6549;SDS011;15142;48.888;9.134;2022-12-07T04:02:54;26.40;;;10.50;;
6549;SDS011;15142;48.888;9.134;2022-12-07T04:05:22;19.27;;;10.13;;
6549;SDS011;15142;48.888;9.134;2022-12-07T04:07:49;12.77;;;8.77;;
6549;SDS011;15142;48.888;9.134;2022-12-07T04:10:16;18.90;;;11.63;;
6549;SDS011;15142;48.888;9.134;2022-12-07T04:12:44;20.40;;;11.80;;
6549;SDS011;15142;48.888;9.134;2022-12-07T04:15:11;15.63;;;10.07;;
6549;SDS011;15142;48.888;9.134;2022-12-07T04:17:38;17.90;;;11.97;;
6549;SDS011;15142;48.888;9.134;2022-12-07T04:20:07;25.80;;;11.10;;
6549;SDS011;15142;48.888;9.134;2022-12-07T04:22:35;17.50;;;11.70;;
6549;SDS011;15142;48.888;9.134;2022-12-07T04:25:03;20.80;;;11.17;;
6549;SDS011;15142;48.888;9.134;2022-12-07T04:27:30;21.07;;;11.73;;
6549;SDS011;15142;48.888;9.134;2022-12-07T04:29:58;17.87;;;10.10;;
6549;SDS011;15142;48.888;9.134;2022-12-07T04:32:25;20.17;;;13.10;;
6549;SDS011;15142;48.888;9.134;2022-12-07T04:34:52;23.30;;;10.83;;
6549;SDS011;15142;48.888;9.134;2022-12-07T04:37:20;18.40;;;11.37;;
6549;SDS011;15142;48.888;9.134;2022-12-07T04:39:47;17.47;;;9.90;;
6549;SDS011;15142;48.888;9.134;2022-12-07T04:42:14;16.10;;;10.10;;
6549;SDS011;15142;48.888;9.134;2022-12-07T04:44:42;18.70;;;11.00;;
6549;SDS011;15142;48.888;9.134;2022-12-07T04:47:09;15.63;;;8.50;;
6549;SDS011;15142;48.888;9.134;2022-12-07T04:49:37;18.93;;;9.20;;
6549;SDS011;15142;48.888;9.134;2022-12-07T04:52:03;16.43;;;10.70;;
6549;SDS011;15142;48.888;9.134;2022-12-07T04:54:32;18.33;;;9.10;;
6549;SDS011;15142;48.888;9.134;2022-12-07T04:56:58;13.30;;;8.13;;
6549;SDS011;15142;48.888;9.134;2022-12-07T04:59:25;16.17;;;9.40;;
6549;SDS011;15142;48.888;9.134;2022-12-07T05:01:52;14.13;;;9.00;;
6549;SDS011;15142;48.888;9.134;2022-12-07T05:04:18;20.97;;;10.00;;
6549;SDS011;15142;48.888;9.134;2022-12-07T05:06:45;20.07;;;8.73;;
6549;SDS011;15142;48.888;9.134;2022-12-07T05:09:11;17.80;;;9.90;;
6549;SDS011;15142;48.888;9.134;2022-12-07T05:11:39;18.47;;;9.57;;
6549;SDS011;15142;48.888;9.134;2022-12-07T05:14:07;19.37;;;9.90;;
6549;SDS011;15142;48.888;9.134;2022-12-07T05:16:37;15.40;;;8.47;;
6549;SDS011;15142;48.888;9.134;2022-12-07T05:19:04;17.20;;;10.00;;
6549;SDS011;15142;48.888;9.134;2022-12-07T05:21:31;14.70;;;9.77;;
6549;SDS011;15142;48.888;9.134;2022-12-07T05:23:58;20.20;;;10.03;;
6549;SDS011;15142;48.888;9.134;2022-12-07T05:26:25;13.70;;;9.50;;
6549;SDS011;15142;48.888;9.134;2022-12-07T05:28:53;18.27;;;9.90;;
6549;SDS011;15142;48.888;9.134;2022-12-07T05:31:21;19.97;;;10.10;;
6549;SDS011;15142;48.888;9.134;2022-12-07T05:33:48;20.40;;;10.40;;
6549;SDS011;15142;48.888;9.134;2022-12-07T05:36:15;20.43;;;10.37;;
6549;SDS011;15142;48.888;9.134;2022-12-07T05:38:42;16.80;;;9.93;;
6549;SDS011;15142;48.888;9.134;2022-12-07T05:41:08;16.83;;;9.97;;
6549;SDS011;15142;48.888;9.134;2022-12-07T05:44:00;18.37;;;9.90;;
6549;SDS011;15142;48.888;9.134;2022-12-07T05:46:27;18.37;;;10.23;;
6549;SDS011;15142;48.888;9.134;2022-12-07T05:48:54;20.13;;;10.97;;
6549;SDS011;15142;48.888;9.134;2022-12-07T05:51:20;17.03;;;9.80;;
6549;SDS011;15142;48.888;9.134;2022-12-07T05:53:47;19.43;;;11.07;;
6549;SDS011;15142;48.888;9.134;2022-12-07T05:56:14;20.23;;;11.40;;
6549;SDS011;15142;48.888;9.134;2022-12-07T05:58:40;17.50;;;9.47;;
6549;SDS011;15142;48.888;9.134;2022-12-07T06:01:26;19.93;;;10.60;;
6549;SDS011;15142;48.888;9.134;2022-12-07T06:03:53;20.60;;;8.37;;
6549;SDS011;15142;48.888;9.134;2022-12-07T06:06:19;18.23;;;8.63;;
6549;SDS011;15142;48.888;9.134;2022-12-07T06:08:46;17.73;;;8.93;;
6549;SDS011;15142;48.888;9.134;2022-12-07T06:11:12;30.57;;;10.80;;
6549;SDS011;15142;48.888;9.134;2022-12-07T06:13:57;25.23;;;8.60;;
6549;SDS011;15142;48.888;9.134;2022-12-07T06:16:24;18.90;;;9.83;;
6549;SDS011;15142;48.888;9.134;2022-12-07T06:18:51;16.20;;;8.97;;
6549;SDS011;15142;48.888;9.134;2022-12-07T06:21:18;16.20;;;9.63;;
6549;SDS011;15142;48.888;9.134;2022-12-07T06:23:45;15.27;;;8.80;;
6549;SDS011;15142;48.888;9.134;2022-12-07T06:26:13;14.40;;;7.57;;
6549;SDS011;15142;48.888;9.134;2022-12-07T06:28:39;9.63;;;7.63;;
6549;SDS011;15142;48.888;9.134;2022-12-07T06:31:06;18.20;;;10.40;;
6549;SDS011;15142;48.888;9.134;2022-12-07T06:33:35;15.70;;;8.20;;
6549;SDS011;15142;48.888;9.134;2022-12-07T06:36:01;14.27;;;7.73;;
6549;SDS011;15142;48.888;9.134;2022-12-07T06:38:28;19.10;;;8.70;;
6549;SDS011;15142;48.888;9.134;2022-12-07T06:40:55;13.03;;;8.07;;
6549;SDS011;15142;48.888;9.134;2022-12-07T06:43:21;12.10;;;6.80;;
6549;SDS011;15142;48.888;9.134;2022-12-07T06:45:48;16.70;;;6.47;;
6549;SDS011;15142;48.888;9.134;2022-12-07T06:48:14;11.77;;;7.13;;
6549;SDS011;15142;48.888;9.134;2022-12-07T06:50:43;11.27;;;7.17;;
6549;SDS011;15142;48.888;9.134;2022-12-07T06:53:10;11.77;;;7.03;;
6549;SDS011;15142;48.888;9.134;2022-12-07T06:55:36;8.30;;;6.43;;
6549;SDS011;15142;48.888;9.134;2022-12-07T06:58:03;12.77;;;8.10;;
6549;SDS011;15142;48.888;9.134;2022-12-07T07:00:30;13.80;;;6.77;;
6549;SDS011;15142;48.888;9.134;2022-12-07T07:02:56;16.53;;;7.20;;
6549;SDS011;15142;48.888;9.134;2022-12-07T07:05:23;10.80;;;7.60;;
6549;SDS011;15142;48.888;9.134;2022-12-07T07:07:51;8.90;;;6.63;;
6549;SDS011;15142;48.888;9.134;2022-12-07T07:10:17;12.20;;;7.27;;
6549;SDS011;15142;48.888;9.134;2022-12-07T07:12:44;7.57;;;6.40;;
6549;SDS011;15142;48.888;9.134;2022-12-07T07:15:10;9.50;;;6.17;;
6549;SDS011;15142;48.888;9.134;2022-12-07T07:17:37;12.30;;;7.73;;
6549;SDS011;15142;48.888;9.134;2022-12-07T07:20:04;9.47;;;5.97;;
6549;SDS011;15142;48.888;9.134;2022-12-07T07:22:32;13.03;;;6.47;;
6549;SDS011;15142;48.888;9.134;2022-12-07T07:25:00;9.80;;;6.83;;
6549;SDS011;15142;48.888;9.134;2022-12-07T07:27:26;7.63;;;6.33;;
6549;SDS011;15142;48.888;9.134;2022-12-07T07:29:53;12.13;;;7.83;;
6549;SDS011;15142;48.888;9.134;2022-12-07T07:32:19;10.80;;;6.53;;
6549;SDS011;15142;48.888;9.134;2022-12-07T07:34:47;11.23;;;6.63;;
6549;SDS011;15142;48.888;9.134;2022-12-07T07:37:13;11.80;;;6.53;;
6549;SDS011;15142;48.888;9.134;2022-12-07T07:39:40;11.00;;;7.60;;
6549;SDS011;15142;48.888;9.134;2022-12-07T07:42:08;13.47;;;7.20;;
6549;SDS011;15142;48.888;9.134;2022-12-07T07:44:37;13.50;;;7.37;;
6549;SDS011;15142;48.888;9.134;2022-12-07T07:47:03;11.57;;;7.43;;
6549;SDS011;15142;48.888;9.134;2022-12-07T07:49:30;11.30;;;6.67;;
6549;SDS011;15142;48.888;9.134;2022-12-07T07:51:57;12.57;;;7.93;;
6549;SDS011;15142;48.888;9.134;2022-12-07T07:54:23;10.37;;;6.50;;
6549;SDS011;15142;48.888;9.134;2022-12-07T07:56:50;12.13;;;6.27;;
6549;SDS011;15142;48.888;9.134;2022-12-07T07:59:17;10.17;;;6.43;;
6549;SDS011;15142;48.888;9.134;2022-12-07T08:01:44;12.60;;;6.83;;
6549;SDS011;15142;48.888;9.134;2022-12-07T08:04:11;8.30;;;6.37;;
6549;SDS011;15142;48.888;9.134;2022-12-07T08:06:37;18.03;;;6.90;;
6549;SDS011;15142;48.888;9.134;2022-12-07T08:09:04;12.87;;;6.70;;
6549;SDS011;15142;48.888;9.134;2022-12-07T08:11:32;13.83;;;6.83;;
6549;SDS011;15142;48.888;9.134;2022-12-07T08:14:04;15.27;;;6.87;;
6549;SDS011;15142;48.888;9.134;2022-12-07T08:16:32;12.53;;;7.30;;
6549;SDS011;15142;48.888;9.134;2022-12-07T08:18:58;12.10;;;7.00;;
6549;SDS011;15142;48.888;9.134;2022-12-07T08:21:25;15.50;;;6.83;;
6549;SDS011;15142;48.888;9.134;2022-12-07T08:23:51;22.87;;;6.80;;
6549;SDS011;15142;48.888;9.134;2022-12-07T08:26:18;13.93;;;7.60;;
6549;SDS011;15142;48.888;9.134;2022-12-07T08:28:45;20.17;;;9.10;;
6549;SDS011;15142;48.888;9.134;2022-12-07T08:31:12;18.43;;;9.23;;
6549;SDS011;15142;48.888;9.134;2022-12-07T08:33:41;9.23;;;6.57;;
6549;SDS011;15142;48.888;9.134;2022-12-07T08:36:09;16.73;;;8.50;;
6549;SDS011;15142;48.888;9.134;2022-12-07T08:38:38;12.80;;;7.00;;
6549;SDS011;15142;48.888;9.134;2022-12-07T08:41:06;10.10;;;6.20;;
6549;SDS011;15142;48.888;9.134;2022-12-07T08:43:33;10.20;;;7.00;;
6549;SDS011;15142;48.888;9.134;2022-12-07T08:46:02;18.07;;;8.20;;
6549;SDS011;15142;48.888;9.134;2022-12-07T08:48:32;15.20;;;7.17;;
6549;SDS011;15142;48.888;9.134;2022-12-07T08:51:01;8.07;;;6.00;;
6549;SDS011;15142;48.888;9.134;2022-12-07T08:53:28;24.07;;;6.37;;
6549;SDS011;15142;48.888;9.134;2022-12-07T08:55:56;9.30;;;5.90;;
6549;SDS011;15142;48.888;9.134;2022-12-07T08:58:24;10.00;;;5.87;;
6549;SDS011;15142;48.888;9.134;2022-12-07T09:00:51;11.27;;;6.40;;
6549;SDS011;15142;48.888;9.134;2022-12-07T09:03:17;7.20;;;4.90;;
6549;SDS011;15142;48.888;9.134;2022-12-07T09:05:44;7.67;;;5.20;;
6549;SDS011;15142;48.888;9.134;2022-12-07T09:08:12;6.60;;;5.30;;
6549;SDS011;15142;48.888;9.134;2022-12-07T09:10:38;6.60;;;4.97;;
6549;SDS011;15142;48.888;9.134;2022-12-07T09:13:05;10.17;;;6.10;;
6549;SDS011;15142;48.888;9.134;2022-12-07T09:15:31;8.70;;;5.47;;
6549;SDS011;15142;48.888;9.134;2022-12-07T09:17:58;7.13;;;4.90;;
6549;SDS011;15142;48.888;9.134;2022-12-07T09:20:24;8.43;;;4.93;;
6549;SDS011;15142;48.888;9.134;2022-12-07T09:22:51;6.97;;;4.80;;
6549;SDS011;15142;48.888;9.134;2022-12-07T09:25:19;9.57;;;4.73;;
6549;SDS011;15142;48.888;9.134;2022-12-07T09:27:45;5.50;;;4.30;;
6549;SDS011;15142;48.888;9.134;2022-12-07T09:30:12;13.80;;;5.03;;
6549;SDS011;15142;48.888;9.134;2022-12-07T09:32:39;7.07;;;4.50;;
6549;SDS011;15142;48.888;9.134;2022-12-07T09:35:06;6.63;;;4.40;;
6549;SDS011;15142;48.888;9.134;2022-12-07T09:37:32;11.07;;;6.63;;
6549;SDS011;15142;48.888;9.134;2022-12-07T09:40:01;92.23;;;28.70;;
6549;SDS011;15142;48.888;9.134;2022-12-07T09:42:30;62.07;;;22.83;;
6549;SDS011;15142;48.888;9.134;2022-12-07T09:45:00;20.50;;;9.00;;
6549;SDS011;15142;48.888;9.134;2022-12-07T09:47:28;13.13;;;7.10;;
6549;SDS011;15142;48.888;9.134;2022-12-07T09:49:55;7.77;;;5.90;;
6549;SDS011;15142;48.888;9.134;2022-12-07T09:52:29;8.27;;;5.00;;
6549;SDS011;15142;48.888;9.134;2022-12-07T09:54:57;6.90;;;4.40;;
6549;SDS011;15142;48.888;9.134;2022-12-07T09:57:25;8.00;;;4.80;;
6549;SDS011;15142;48.888;9.134;2022-12-07T09:59:56;8.40;;;5.03;;
6549;SDS011;15142;48.888;9.134;2022-12-07T10:02:32;9.93;;;5.20;;
6549;SDS011;15142;48.888;9.134;2022-12-07T10:05:03;8.70;;;6.73;;
6549;SDS011;15142;48.888;9.134;2022-12-07T10:07:30;8.57;;;6.20;;
6549;SDS011;15142;48.888;9.134;2022-12-07T10:09:57;10.67;;;5.80;;
6549;SDS011;15142;48.888;9.134;2022-12-07T10:12:23;7.03;;;4.93;;
6549;SDS011;15142;48.888;9.134;2022-12-07T10:14:54;12.20;;;4.73;;
6549;SDS011;15142;48.888;9.134;2022-12-07T10:17:28;8.33;;;5.90;;
6549;SDS011;15142;48.888;9.134;2022-12-07T10:20:08;18.07;;;6.17;;
6549;SDS011;15142;48.888;9.134;2022-12-07T10:22:53;6.23;;;4.27;;
6549;SDS011;15142;48.888;9.134;2022-12-07T10:25:22;6.70;;;3.90;;
6549;SDS011;15142;48.888;9.134;2022-12-07T10:27:57;7.83;;;4.53;;
6549;SDS011;15142;48.888;9.134;2022-12-07T10:30:24;4.93;;;3.57;;
6549;SDS011;15142;48.888;9.134;2022-12-07T10:32:53;8.00;;;4.10;;
6549;SDS011;15142;48.888;9.134;2022-12-07T10:35:23;6.80;;;4.07;;
6549;SDS011;15142;48.888;9.134;2022-12-07T10:37:52;7.40;;;4.90;;
6549;SDS011;15142;48.888;9.134;2022-12-07T10:40:24;9.43;;;5.53;;
6549;SDS011;15142;48.888;9.134;2022-12-07T10:43:12;5.87;;;4.20;;
6549;SDS011;15142;48.888;9.134;2022-12-07T10:45:53;17.80;;;10.90;;
6549;SDS011;15142;48.888;9.134;2022-12-07T10:48:35;10.90;;;6.27;;
6549;SDS011;15142;48.888;9.134;2022-12-07T10:51:12;5.80;;;5.20;;
6549;SDS011;15142;48.888;9.134;2022-12-07T10:53:50;5.27;;;4.37;;
6549;SDS011;15142;48.888;9.134;2022-12-07T10:56:38;11.37;;;6.37;;
6549;SDS011;15142;48.888;9.134;2022-12-07T10:59:24;10.33;;;6.37;;
6549;SDS011;15142;48.888;9.134;2022-12-07T11:02:06;9.80;;;5.70;;
6549;SDS011;15142;48.888;9.134;2022-12-07T11:04:49;10.70;;;5.10;;
6549;SDS011;15142;48.888;9.134;2022-12-07T11:07:27;8.20;;;4.87;;
6549;SDS011;15142;48.888;9.134;2022-12-07T11:10:05;7.63;;;5.30;;
6549;SDS011;15142;48.888;9.134;2022-12-07T11:12:42;9.63;;;6.77;;
6549;SDS011;15142;48.888;9.134;2022-12-07T11:15:20;17.97;;;5.67;;
6549;SDS011;15142;48.888;9.134;2022-12-07T11:17:53;9.70;;;6.20;;
6549;SDS011;15142;48.888;9.134;2022-12-07T11:20:36;9.47;;;6.67;;
6549;SDS011;15142;48.888;9.134;2022-12-07T11:23:11;12.63;;;6.93;;
6549;SDS011;15142;48.888;9.134;2022-12-07T11:25:47;12.23;;;6.73;;
6549;SDS011;15142;48.888;9.134;2022-12-07T11:28:22;12.80;;;7.60;;
6549;SDS011;15142;48.888;9.134;2022-12-07T11:30:57;16.40;;;8.43;;
6549;SDS011;15142;48.888;9.134;2022-12-07T11:33:35;10.73;;;6.93;;
6549;SDS011;15142;48.888;9.134;2022-12-07T11:36:13;11.57;;;7.47;;
6549;SDS011;15142;48.888;9.134;2022-12-07T11:38:55;8.67;;;5.70;;
6549;SDS011;15142;48.888;9.134;2022-12-07T11:41:26;14.23;;;7.70;;
6549;SDS011;15142;48.888;9.134;2022-12-07T11:43:56;11.43;;;7.27;;
6549;SDS011;15142;48.888;9.134;2022-12-07T11:46:29;15.63;;;7.90;;
6549;SDS011;15142;48.888;9.134;2022-12-07T11:49:10;15.27;;;9.50;;
6549;SDS011;15142;48.888;9.134;2022-12-07T11:51:42;10.00;;;7.23;;
6549;SDS011;15142;48.888;9.134;2022-12-07T11:54:12;9.73;;;7.47;;
6549;SDS011;15142;48.888;9.134;2022-12-07T11:56:41;10.87;;;6.30;;
6549;SDS011;15142;48.888;9.134;2022-12-07T11:59:10;9.80;;;7.27;;
6549;SDS011;15142;48.888;9.134;2022-12-07T12:01:45;7.13;;;5.57;;
6549;SDS011;15142;48.888;9.134;2022-12-07T12:04:30;11.80;;;6.60;;
6549;SDS011;15142;48.888;9.134;2022-12-07T12:07:01;14.27;;;7.10;;
6549;SDS011;15142;48.888;9.134;2022-12-07T12:09:33;12.20;;;6.97;;
6549;SDS011;15142;48.888;9.134;2022-12-07T12:14:59;11.13;;;6.83;;
6549;SDS011;15142;48.888;9.134;2022-12-07T12:17:48;13.37;;;7.23;;
6549;SDS011;15142;48.888;9.134;2022-12-07T12:20:23;13.63;;;7.73;;
6549;SDS011;15142;48.888;9.134;2022-12-07T12:22:58;10.27;;;6.60;;
6549;SDS011;15142;48.888;9.134;2022-12-07T12:25:28;13.13;;;7.40;;
6549;SDS011;15142;48.888;9.134;2022-12-07T12:28:02;8.63;;;6.33;;
6549;SDS011;15142;48.888;9.134;2022-12-07T12:30:30;14.43;;;6.97;;
6549;SDS011;15142;48.888;9.134;2022-12-07T12:33:03;13.20;;;7.47;;
6549;SDS011;15142;48.888;9.134;2022-12-07T12:35:33;12.17;;;7.07;;
6549;SDS011;15142;48.888;9.134;2022-12-07T12:38:24;24.13;;;13.47;;
6549;SDS011;15142;48.888;9.134;2022-12-07T12:40:56;14.37;;;8.63;;
6549;SDS011;15142;48.888;9.134;2022-12-07T12:55:13;21.37;;;12.60;;
6549;SDS011;15142;48.888;9.134;2022-12-07T12:57:45;15.70;;;10.33;;
6549;SDS011;15142;48.888;9.134;2022-12-07T13:00:16;15.70;;;8.63;;
6549;SDS011;15142;48.888;9.134;2022-12-07T13:02:47;16.37;;;9.43;;
6549;SDS011;15142;48.888;9.134;2022-12-07T13:05:16;16.80;;;7.97;;
6549;SDS011;15142;48.888;9.134;2022-12-07T13:07:58;21.93;;;11.60;;
6549;SDS011;15142;48.888;9.134;2022-12-07T13:10:38;20.70;;;10.00;;
6549;SDS011;15142;48.888;9.134;2022-12-07T13:13:28;19.67;;;9.80;;
6549;SDS011;15142;48.888;9.134;2022-12-07T13:18:56;14.80;;;9.50;;
6549;SDS011;15142;48.888;9.134;2022-12-07T13:21:42;20.03;;;9.77;;
6549;SDS011;15142;48.888;9.134;2022-12-07T13:24:10;19.00;;;9.57;;
6549;SDS011;15142;48.888;9.134;2022-12-07T13:26:41;21.73;;;12.67;;
6549;SDS011;15142;48.888;9.134;2022-12-07T13:29:10;19.20;;;10.73;;
6549;SDS011;15142;48.888;9.134;2022-12-07T13:31:39;17.70;;;11.10;;
6549;SDS011;15142;48.888;9.134;2022-12-07T13:36:56;21.73;;;11.97;;
6549;SDS011;15142;48.888;9.134;2022-12-07T13:39:23;23.20;;;11.70;;
6549;SDS011;15142;48.888;9.134;2022-12-07T13:41:53;21.37;;;12.07;;
6549;SDS011;15142;48.888;9.134;2022-12-07T13:44:22;26.97;;;11.20;;
6549;SDS011;15142;48.888;9.134;2022-12-07T13:46:51;20.50;;;11.13;;
6549;SDS011;15142;48.888;9.134;2022-12-07T13:49:24;17.80;;;10.20;;
6549;SDS011;15142;48.888;9.134;2022-12-07T13:51:52;36.63;;;14.77;;
6549;SDS011;15142;48.888;9.134;2022-12-07T13:54:19;16.80;;;10.77;;
6549;SDS011;15142;48.888;9.134;2022-12-07T13:56:47;18.67;;;10.80;;
6549;SDS011;15142;48.888;9.134;2022-12-07T13:59:18;20.93;;;10.17;;
6549;SDS011;15142;48.888;9.134;2022-12-07T14:01:47;23.90;;;11.10;;
6549;SDS011;15142;48.888;9.134;2022-12-07T14:04:31;17.63;;;10.37;;
6549;SDS011;15142;48.888;9.134;2022-12-07T14:06:59;28.30;;;15.70;;
6549;SDS011;15142;48.888;9.134;2022-12-07T14:09:27;19.33;;;10.60;;
6549;SDS011;15142;48.888;9.134;2022-12-07T14:11:56;38.50;;;16.33;;
6549;SDS011;15142;48.888;9.134;2022-12-07T14:14:25;24.20;;;11.17;;
6549;SDS011;15142;48.888;9.134;2022-12-07T14:16:55;50.60;;;20.30;;
6549;SDS011;15142;48.888;9.134;2022-12-07T14:22:22;24.70;;;11.13;;
6549;SDS011;15142;48.888;9.134;2022-12-07T14:27:48;38.37;;;17.27;;
6549;SDS011;15142;48.888;9.134;2022-12-07T14:30:25;56.63;;;23.13;;
6549;SDS011;15142;48.888;9.134;2022-12-07T14:32:54;36.03;;;14.87;;
6549;SDS011;15142;48.888;9.134;2022-12-07T14:35:24;24.90;;;13.97;;
6549;SDS011;15142;48.888;9.134;2022-12-07T14:37:50;70.77;;;30.60;;
6549;SDS011;15142;48.888;9.134;2022-12-07T14:40:18;27.95;;;12.68;;
6549;SDS011;15142;48.888;9.134;2022-12-07T14:42:47;40.70;;;15.50;;
6549;SDS011;15142;48.888;9.134;2022-12-07T14:45:16;71.50;;;24.27;;
6549;SDS011;15142;48.888;9.134;2022-12-07T14:47:46;14.50;;;8.70;;
6549;SDS011;15142;48.888;9.134;2022-12-07T14:50:14;16.77;;;9.53;;
6549;SDS011;15142;48.888;9.134;2022-12-07T14:52:42;38.30;;;17.47;;
6549;SDS011;15142;48.888;9.134;2022-12-07T14:55:14;27.97;;;12.43;;
6549;SDS011;15142;48.888;9.134;2022-12-07T14:57:46;20.80;;;9.80;;
6549;SDS011;15142;48.888;9.134;2022-12-07T15:00:13;27.63;;;13.47;;
6549;SDS011;15142;48.888;9.134;2022-12-07T15:02:42;32.03;;;15.43;;
6549;SDS011;15142;48.888;9.134;2022-12-07T15:05:10;22.27;;;12.60;;
6549;SDS011;15142;48.888;9.134;2022-12-07T15:07:37;17.80;;;10.90;;
6549;SDS011;15142;48.888;9.134;2022-12-07T15:10:04;32.90;;;19.40;;
6549;SDS011;15142;48.888;9.134;2022-12-07T15:12:31;20.40;;;11.67;;
6549;SDS011;15142;48.888;9.134;2022-12-07T15:14:58;23.93;;;12.50;;
6549;SDS011;15142;48.888;9.134;2022-12-07T15:17:26;23.47;;;10.10;;
6549;SDS011;15142;48.888;9.134;2022-12-07T15:19:53;22.20;;;12.77;;
6549;SDS011;15142;48.888;9.134;2022-12-07T15:22:21;22.97;;;12.47;;
6549;SDS011;15142;48.888;9.134;2022-12-07T15:24:47;35.73;;;16.90;;
6549;SDS011;15142;48.888;9.134;2022-12-07T15:27:14;32.03;;;14.97;;
6549;SDS011;15142;48.888;9.134;2022-12-07T15:29:41;50.20;;;21.30;;
6549;SDS011;15142;48.888;9.134;2022-12-07T15:32:07;26.07;;;14.97;;